Time;durP1;ratioP1;P1;durP2;ratioP2;P2;SDS_P1;SDS_P2;PMS_P1;PMS_P2;Temp;Humidity;BMP_temperature;BMP_pressure;BME280_temperature;BME280_humidity;BME280_pressure;Samples;Min_cycle;Max_cycle;Signal;HPM_P1;HPM_P2
2021/11/26 00:02:07;;;;;;;7.53;0.57;;;;;;;4.01;52.45;100442.53;4979610;28;20046;-68
2021/11/26 00:04:32;;;;;;;7.82;0.40;;;;;;;3.85;52.48;100449.75;4982333;28;20034;-68
2021/11/26 00:06:58;;;;;;;1.08;0.70;;;;;;;3.82;52.59;100441.19;4997405;28;20062;-68
2021/11/26 00:09:23;;;;;;;2.08;0.38;;;;;;;3.89;52.58;100443.59;4981687;28;20869;-68
2021/11/26 00:11:49;;;;;;;6.10;0.20;;;;;;;3.84;52.70;100431.66;4991821;28;20438;-68
2021/11/26 00:14:18;;;;;;;5.13;0.20;;;;;;;3.72;52.97;100430.16;4998347;28;20113;-68
2021/11/26 00:16:44;;;;;;;2.47;0.20;;;;;;;3.69;53.32;100415.53;4996167;28;20038;-69
2021/11/26 00:19:10;;;;;;;2.15;0.85;;;;;;;3.80;53.22;100407.59;4995689;28;20085;-68
2021/11/26 00:21:38;;;;;;;7.43;1.15;;;;;;;3.59;53.29;100404.53;4979635;28;20083;-67
2021/11/26 00:24:05;;;;;;;2.78;1.05;;;;;;;3.66;53.09;100397.53;4997928;28;20057;-68
2021/11/26 00:26:31;;;;;;;2.58;1.05;;;;;;;3.75;52.77;100394.75;4983962;28;20077;-67
2021/11/26 00:28:57;;;;;;;2.15;0.40;;;;;;;3.36;53.92;100391.19;4960378;28;20042;-67
2021/11/26 00:31:23;;;;;;;4.50;0.55;;;;;;;3.49;53.54;100387.50;4987301;28;20049;-67
2021/11/26 00:33:48;;;;;;;1.95;0.38;;;;;;;3.44;53.57;100381.56;4986205;28;20045;-66
2021/11/26 00:36:14;;;;;;;1.98;0.30;;;;;;;3.34;54.03;100377.47;4984026;28;20092;-67
2021/11/26 00:38:39;;;;;;;1.52;0.10;;;;;;;3.16;54.83;100374.28;5001918;28;20053;-67
2021/11/26 00:41:05;;;;;;;0.38;0.00;;;;;;;3.05;55.63;100373.59;5002885;28;20033;-68
2021/11/26 00:43:30;;;;;;;2.78;0.30;;;;;;;3.14;55.13;100370.88;4985687;28;20899;-68
2021/11/26 00:45:56;;;;;;;6.28;0.30;;;;;;;3.37;54.67;100351.56;4982754;28;20037;-67
2021/11/26 00:48:22;;;;;;;1.40;0.10;;;;;;;3.42;54.41;100347.16;5001010;28;20512;-67
2021/11/26 00:50:48;;;;;;;2.13;0.10;;;;;;;3.54;53.85;100338.34;4984978;28;20442;-68
2021/11/26 00:53:13;;;;;;;3.67;0.25;;;;;;;3.40;54.16;100335.97;4998681;28;20128;-68
2021/11/26 00:55:39;;;;;;;6.22;0.45;;;;;;;3.25;54.97;100320.75;4985835;28;20084;-66
2021/11/26 00:58:05;;;;;;;2.55;0.20;;;;;;;2.10;58.16;100321.72;5002530;28;20058;-67
2021/11/26 01:00:31;;;;;;;3.88;0.25;;;;;;;2.96;55.58;100314.38;4998210;28;20117;-67
2021/11/26 01:02:58;;;;;;;9.18;0.65;;;;;;;2.93;55.61;100304.09;4970222;28;20038;-67
2021/11/26 01:05:23;;;;;;;1.98;0.30;;;;;;;2.13;58.03;100303.63;4999815;28;20109;-67
2021/11/26 01:07:49;;;;;;;4.00;0.20;;;;;;;2.88;56.00;100293.00;4969531;28;20046;-67
2021/11/26 01:10:18;;;;;;;6.00;0.60;;;;;;;2.97;55.23;100295.41;4985631;28;20099;-69
2021/11/26 01:12:43;;;;;;;5.78;0.30;;;;;;;3.07;54.75;100285.78;4982234;28;20126;-68
2021/11/26 01:15:12;;;;;;;1.92;0.30;;;;;;;2.79;55.86;100281.09;5002452;28;20038;-67
2021/11/26 01:17:41;;;;;;;2.70;0.40;;;;;;;3.09;54.96;100273.69;4983916;28;20571;-67
2021/11/26 01:20:10;;;;;;;0.65;0.20;;;;;;;2.98;55.30;100279.06;4984392;28;20037;-68
2021/11/26 01:22:36;;;;;;;3.80;0.20;;;;;;;3.06;54.78;100274.59;5000359;28;20153;-67
2021/11/26 01:25:03;;;;;;;2.83;0.40;;;;;;;2.49;56.67;100277.31;4980706;28;20380;-68
2021/11/26 01:27:29;;;;;;;1.85;0.93;;;;;;;2.65;56.35;100265.88;4986202;28;20113;-67
2021/11/26 01:29:55;;;;;;;3.08;0.40;;;;;;;3.01;54.98;100271.25;4984694;28;20056;-67
2021/11/26 01:32:20;;;;;;;2.63;0.60;;;;;;;3.05;54.70;100257.41;4996387;28;20056;-67
2021/11/26 01:34:46;;;;;;;3.55;0.50;;;;;;;2.86;55.41;100251.72;5000466;28;20030;-67
2021/11/26 01:37:11;;;;;;;3.72;0.57;;;;;;;2.99;55.00;100242.03;4965474;28;20510;-67
2021/11/26 01:39:37;;;;;;;1.52;0.32;;;;;;;2.87;55.19;100231.94;4996930;28;20049;-68
2021/11/26 01:42:03;;;;;;;1.83;0.40;;;;;;;2.86;55.17;100227.66;4985009;28;20054;-68
2021/11/26 01:44:28;;;;;;;2.85;0.38;;;;;;;2.70;55.85;100230.50;4982212;28;20038;-67
2021/11/26 01:46:54;;;;;;;2.47;0.30;;;;;;;2.89;54.98;100225.88;4984169;28;20708;-67
2021/11/26 01:49:19;;;;;;;3.80;0.45;;;;;;;2.57;56.08;100218.69;4982442;28;20046;-66
2021/11/26 01:51:45;;;;;;;0.82;0.35;;;;;;;2.35;56.43;100219.06;4998079;28;20525;-67
2021/11/26 01:54:11;;;;;;;2.38;0.52;;;;;;;2.46;56.96;100215.44;4998261;28;20053;-67
2021/11/26 01:56:37;;;;;;;5.35;0.30;;;;;;;2.45;56.93;100218.91;4999266;28;20117;-70
2021/11/26 01:59:03;;;;;;;4.32;0.20;;;;;;;2.85;55.69;100213.06;5001357;28;20034;-67
2021/11/26 02:01:28;;;;;;;3.38;0.60;;;;;;;3.00;55.27;100207.56;5000704;28;20034;-67
2021/11/26 02:03:54;;;;;;;1.92;0.88;;;;;;;2.86;55.46;100212.16;4982496;28;20045;-67
2021/11/26 02:06:20;;;;;;;1.50;0.28;;;;;;;2.61;56.28;100211.75;4985457;28;20814;-67
2021/11/26 02:08:48;;;;;;;3.80;0.75;;;;;;;2.98;55.51;100210.22;4983772;28;20476;-69
2021/11/26 02:11:13;;;;;;;1.23;0.73;;;;;;;2.84;55.91;100209.59;4996996;28;20048;-67
2021/11/26 02:13:39;;;;;;;3.88;0.50;;;;;;;2.84;55.63;100207.03;4999011;28;20418;-67
2021/11/26 02:16:05;;;;;;;3.38;0.52;;;;;;;2.49;56.76;100200.78;4997278;28;21075;-67
2021/11/26 02:18:31;;;;;;;0.90;0.20;;;;;;;2.80;56.27;100191.63;4970129;28;20039;-67
2021/11/26 02:20:57;;;;;;;0.80;0.30;;;;;;;2.97;55.67;100189.56;4980852;28;20438;-67
2021/11/26 02:23:23;;;;;;;3.70;0.30;;;;;;;2.99;55.39;100185.25;4996521;28;20851;-67
2021/11/26 02:25:49;;;;;;;3.45;0.20;;;;;;;2.81;56.05;100186.44;4998413;28;20030;-67
2021/11/26 02:28:16;;;;;;;1.00;0.28;;;;;;;3.13;55.35;100182.38;4967697;28;20123;-67
2021/11/26 02:30:43;;;;;;;1.50;0.30;;;;;;;3.02;55.64;100174.00;4997621;28;20042;-67
2021/11/26 02:33:11;;;;;;;1.50;0.40;;;;;;;3.35;54.65;100165.59;4982226;28;20108;-67
2021/11/26 02:35:37;;;;;;;1.98;0.10;;;;;;;3.39;54.36;100156.88;4984482;28;20065;-67
2021/11/26 02:38:05;;;;;;;1.20;0.10;;;;;;;3.41;54.23;100154.28;4980825;28;20576;-67
2021/11/26 02:40:33;;;;;;;0.40;0.10;;;;;;;2.97;55.65;100150.84;4998421;28;20061;-67
2021/11/26 02:42:59;;;;;;;0.45;0.10;;;;;;;2.89;55.86;100135.53;4969790;28;20136;-67
2021/11/26 02:45:25;;;;;;;0.47;0.10;;;;;;;2.96;55.29;100126.78;4996299;28;20045;-67
2021/11/26 02:47:54;;;;;;;1.75;0.17;;;;;;;3.16;54.83;100131.53;4984218;28;20054;-67
2021/11/26 02:50:21;;;;;;;4.43;0.20;;;;;;;3.02;55.35;100127.53;4973925;28;20050;-67
2021/11/26 02:52:47;;;;;;;0.10;0.00;;;;;;;3.12;55.29;100114.41;4965599;28;20779;-67
2021/11/26 02:55:19;;;;;;;0.75;0.17;;;;;;;3.41;54.42;100099.19;4982346;28;20045;-67
2021/11/26 02:57:45;;;;;;;1.15;0.00;;;;;;;3.51;53.98;100096.34;4998201;28;20108;-67
2021/11/26 03:00:13;;;;;;;0.40;0.00;;;;;;;3.43;54.17;100082.75;4996921;28;20031;-68
2021/11/26 03:02:39;;;;;;;0.20;0.00;;;;;;;3.43;54.31;100077.59;4990048;28;20081;-67
2021/11/26 03:05:05;;;;;;;3.97;0.73;;;;;;;3.26;54.67;100074.50;4983294;28;20034;-68
2021/11/26 03:07:30;;;;;;;2.45;0.17;;;;;;;2.52;56.55;100083.78;4983400;28;20541;-67
2021/11/26 03:09:56;;;;;;;1.33;0.10;;;;;;;3.19;55.06;100076.38;4996855;28;20052;-67
2021/11/26 03:12:21;;;;;;;2.92;0.10;;;;;;;3.22;54.68;100080.63;4980774;28;20057;-67
2021/11/26 03:14:47;;;;;;;1.80;0.03;;;;;;;2.82;56.29;100073.72;4998575;28;20104;-67
2021/11/26 03:17:12;;;;;;;0.15;0.00;;;;;;;3.22;54.93;100065.97;4982592;28;20077;-67
2021/11/26 03:19:38;;;;;;;3.90;0.20;;;;;;;2.76;55.80;100062.66;4971569;28;20049;-68
2021/11/26 03:22:03;;;;;;;3.10;0.00;;;;;;;3.06;55.08;100052.56;4986976;28;20500;-67
2021/11/26 03:24:29;;;;;;;0.95;0.00;;;;;;;3.23;54.41;100048.75;4966925;28;20399;-68
2021/11/26 03:26:55;;;;;;;1.75;0.00;;;;;;;3.31;54.23;100041.69;4965881;28;20081;-68
2021/11/26 03:29:20;;;;;;;0.38;0.20;;;;;;;2.97;55.00;100038.09;4983005;28;20037;-67
2021/11/26 03:31:46;;;;;;;1.90;0.00;;;;;;;3.27;54.05;100035.75;4995579;28;20050;-69
2021/11/26 03:34:11;;;;;;;1.75;0.00;;;;;;;2.87;54.81;100036.63;4967913;28;20084;-67
2021/11/26 03:36:37;;;;;;;0.55;0.10;;;;;;;2.91;54.76;100037.38;4997369;28;20041;-68
2021/11/26 03:39:04;;;;;;;0.38;0.15;;;;;;;2.75;54.97;100031.72;4995372;28;20030;-68
2021/11/26 03:41:29;;;;;;;0.32;0.00;;;;;;;2.60;55.40;100019.13;4998193;28;20038;-68
2021/11/26 03:43:55;;;;;;;3.40;0.20;;;;;;;2.81;54.60;100015.25;4994390;28;20103;-68
2021/11/26 03:46:20;;;;;;;3.55;0.03;;;;;;;3.01;53.91;100015.66;4997600;28;20868;-67
2021/11/26 03:48:46;;;;;;;1.58;0.20;;;;;;;3.01;53.91;100010.50;4956978;28;20104;-68
2021/11/26 03:51:12;;;;;;;0.88;0.03;;;;;;;2.51;54.97;100005.56;4983076;28;20033;-67
2021/11/26 03:53:38;;;;;;;0.32;0.10;;;;;;;2.74;54.42;100001.63;4977914;28;20052;-67
2021/11/26 03:56:04;;;;;;;1.40;0.10;;;;;;;2.00;56.69;100005.69;4986384;28;20129;-67
2021/11/26 03:58:30;;;;;;;0.43;0.10;;;;;;;2.97;53.71;99996.81;4974427;28;20074;-68
2021/11/26 04:00:56;;;;;;;1.17;0.03;;;;;;;2.81;54.28;99986.88;4998105;28;20065;-67
2021/11/26 04:03:21;;;;;;;0.75;0.00;;;;;;;2.85;54.02;99985.94;4980049;28;20049;-67
2021/11/26 04:05:47;;;;;;;1.65;0.10;;;;;;;2.32;55.41;99986.16;4997150;28;20133;-67
2021/11/26 04:08:12;;;;;;;2.70;0.00;;;;;;;2.89;54.31;99982.38;4987293;28;20050;-67
2021/11/26 04:10:38;;;;;;;0.35;0.00;;;;;;;3.00;53.86;99972.66;4981835;28;20082;-67
2021/11/26 04:13:04;;;;;;;2.72;0.10;;;;;;;3.22;53.58;99972.16;4982608;28;20041;-67
2021/11/26 04:15:35;;;;;;;2.47;0.10;;;;;;;3.29;53.15;99959.13;4968349;28;20487;-67
2021/11/26 04:18:01;;;;;;;0.77;0.10;;;;;;;2.92;54.34;99953.94;4981894;28;20042;-67
2021/11/26 04:20:27;;;;;;;1.20;0.10;;;;;;;3.11;53.88;99952.63;4979634;28;20033;-67
2021/11/26 04:22:54;;;;;;;0.90;0.00;;;;;;;3.36;52.99;99946.91;4978955;28;20054;-67
2021/11/26 04:25:20;;;;;;;1.13;0.00;;;;;;;3.38;52.65;99940.81;4988578;28;20045;-68
2021/11/26 04:27:46;;;;;;;2.45;0.00;;;;;;;3.33;53.14;99931.44;4965663;28;20108;-67
2021/11/26 04:30:13;;;;;;;0.13;0.00;;;;;;;3.34;52.57;99933.16;4994439;28;20029;-68
2021/11/26 04:32:39;;;;;;;1.50;0.10;;;;;;;3.36;53.00;99926.22;4981492;28;20057;-67
2021/11/26 04:35:05;;;;;;;2.67;0.10;;;;;;;3.16;53.23;99924.09;4979737;28;20492;-67
2021/11/26 04:37:31;;;;;;;2.42;0.75;;;;;;;2.87;53.91;99925.66;4977567;28;20061;-67
2021/11/26 04:39:57;;;;;;;0.47;0.10;;;;;;;3.06;53.69;99923.47;4998918;28;20063;-67
2021/11/26 04:42:22;;;;;;;2.20;0.35;;;;;;;3.19;53.47;99918.84;4996371;28;20042;-67
2021/11/26 04:44:48;;;;;;;0.60;0.20;;;;;;;3.24;53.34;99916.16;4988904;28;20045;-67
2021/11/26 04:47:13;;;;;;;1.00;0.40;;;;;;;3.29;53.10;99909.16;4965907;28;20084;-67
2021/11/26 04:49:39;;;;;;;4.05;0.68;;;;;;;3.03;53.39;99902.91;4977468;28;20140;-67
2021/11/26 04:52:05;;;;;;;7.78;0.57;;;;;;;3.01;53.74;99907.25;4981077;28;20042;-68
2021/11/26 04:54:31;;;;;;;3.38;0.90;;;;;;;2.98;54.04;99904.75;4995815;28;20038;-67
2021/11/26 04:56:56;;;;;;;2.85;0.95;;;;;;;3.06;53.87;99902.81;4980217;28;20125;-66
2021/11/26 04:59:23;;;;;;;7.60;1.00;;;;;;;2.98;54.20;99904.75;4965241;28;20172;-68
2021/11/26 05:01:49;;;;;;;9.20;1.20;;;;;;;3.14;54.07;99895.72;4993886;28;20040;-67
2021/11/26 05:04:15;;;;;;;3.30;0.98;;;;;;;3.13;53.60;99899.19;4996783;28;20042;-68
2021/11/26 05:06:40;;;;;;;3.55;1.00;;;;;;;2.38;56.03;99893.22;4977627;28;20042;-67
2021/11/26 05:09:08;;;;;;;6.57;1.50;;;;;;;2.20;56.90;99894.44;4984205;28;20415;-67
2021/11/26 05:11:34;;;;;;;3.65;1.35;;;;;;;2.48;56.15;99884.38;4974807;28;20113;-69
2021/11/26 05:13:59;;;;;;;4.38;1.73;;;;;;;2.49;55.92;99885.25;4983437;28;20037;-67
2021/11/26 05:16:25;;;;;;;6.63;2.00;;;;;;;2.43;56.54;99882.78;4982436;28;20034;-67
2021/11/26 05:18:51;;;;;;;3.55;1.67;;;;;;;2.81;55.44;99871.59;4983769;28;20516;-67
2021/11/26 05:21:16;;;;;;;3.08;1.73;;;;;;;2.53;55.97;99871.38;4967786;28;20736;-67
2021/11/26 05:23:42;;;;;;;6.55;1.63;;;;;;;2.73;55.37;99865.75;4998075;28;20041;-67
2021/11/26 05:26:07;;;;;;;4.28;1.90;;;;;;;2.74;55.40;99859.72;5001043;28;20088;-67
2021/11/26 05:28:34;;;;;;;4.80;1.55;;;;;;;2.53;55.85;99855.88;5000116;28;20125;-67
2021/11/26 05:30:59;;;;;;;3.97;1.83;;;;;;;3.00;54.93;99847.91;4985553;28;20117;-66
2021/11/26 05:33:25;;;;;;;5.07;2.15;;;;;;;2.33;56.30;99844.31;4997524;28;20065;-66
2021/11/26 05:35:50;;;;;;;2.72;1.88;;;;;;;2.83;55.01;99832.84;4983136;28;20582;-69
2021/11/26 05:38:16;;;;;;;6.90;2.90;;;;;;;2.86;55.06;99817.28;4985933;28;20056;-67
2021/11/26 05:40:42;;;;;;;5.43;2.78;;;;;;;2.92;54.80;99815.38;5000346;28;20026;-66
2021/11/26 05:43:08;;;;;;;4.40;2.35;;;;;;;3.12;54.16;99812.28;4982635;28;20153;-66
2021/11/26 05:45:34;;;;;;;9.00;2.58;;;;;;;3.14;54.01;99812.25;4983327;28;20376;-66
2021/11/26 05:47:59;;;;;;;5.72;2.53;;;;;;;2.10;57.34;99815.59;4999033;28;20115;-66
2021/11/26 05:50:27;;;;;;;5.18;2.60;;;;;;;2.50;55.92;99806.97;4999968;28;20046;-67
2021/11/26 05:52:53;;;;;;;9.70;2.88;;;;;;;2.80;55.12;99809.66;4997002;28;20042;-67
2021/11/26 05:55:23;;;;;;;4.20;2.83;;;;;;;2.30;56.32;99807.41;5000734;28;20042;-67
2021/11/26 05:57:49;;;;;;;5.75;2.88;;;;;;;2.46;56.12;99792.44;4999863;28;20161;-67
2021/11/26 06:00:16;;;;;;;6.20;2.90;;;;;;;2.61;55.34;99793.81;4984652;28;20681;-68
2021/11/26 06:02:42;;;;;;;4.28;2.03;;;;;;;2.72;54.79;99795.25;4988779;28;20120;-66
2021/11/26 06:05:08;;;;;;;4.63;2.80;;;;;;;2.59;55.04;99787.84;4971155;28;20513;-67
2021/11/26 06:07:35;;;;;;;7.90;3.20;;;;;;;2.47;55.37;99789.00;4983540;28;20112;-68
2021/11/26 06:10:06;;;;;;;9.23;2.65;;;;;;;2.61;55.31;99786.91;4976071;28;20046;-67
2021/11/26 06:12:31;;;;;;;7.38;2.63;;;;;;;2.76;54.67;99775.38;4983271;28;20657;-66
2021/11/26 06:14:57;;;;;;;8.95;3.70;;;;;;;2.91;54.31;99771.53;4981254;28;20046;-67
2021/11/26 06:17:22;;;;;;;9.23;4.35;;;;;;;1.92;56.92;99776.44;4963880;28;20511;-67
2021/11/26 06:19:48;;;;;;;13.50;4.25;;;;;;;2.39;55.80;99775.41;4997823;28;20045;-67
2021/11/26 06:22:14;;;;;;;8.45;4.13;;;;;;;2.00;57.18;99758.25;4999523;28;20753;-68
2021/11/26 06:24:40;;;;;;;13.20;3.75;;;;;;;2.50;55.97;99760.53;4996481;28;20057;-67
2021/11/26 06:27:07;;;;;;;13.43;3.33;;;;;;;2.97;54.57;99755.91;4981833;28;20500;-68
2021/11/26 06:29:32;;;;;;;9.90;2.00;;;;;;;2.68;55.41;99744.59;4999155;28;20053;-68
2021/11/26 06:31:58;;;;;;;7.28;2.70;;;;;;;2.97;54.81;99748.16;4982682;28;20519;-69
2021/11/26 06:34:24;;;;;;;5.65;2.00;;;;;;;2.69;55.12;99738.56;5000435;28;20034;-67
2021/11/26 06:36:50;;;;;;;5.65;1.60;;;;;;;2.53;55.65;99742.38;4963801;28;20052;-68
2021/11/26 06:39:15;;;;;;;3.65;0.80;;;;;;;2.34;55.72;99736.84;4999632;28;20037;-67
2021/11/26 06:41:41;;;;;;;3.38;1.02;;;;;;;2.77;54.92;99736.59;4977403;28;20037;-67
2021/11/26 06:44:07;;;;;;;10.50;2.38;;;;;;;2.87;54.54;99733.81;4977558;28;20040;-67
2021/11/26 06:46:32;;;;;;;2.60;0.55;;;;;;;2.08;56.54;99725.41;5001749;28;20088;-68
2021/11/26 06:48:58;;;;;;;6.28;0.63;;;;;;;2.48;55.15;99732.19;4985146;28;20046;-67
2021/11/26 06:51:23;;;;;;;1.75;0.63;;;;;;;2.28;55.98;99724.09;4996098;28;20730;-68
2021/11/26 06:53:49;;;;;;;2.80;0.57;;;;;;;2.21;55.64;99719.97;4980705;28;20414;-68
2021/11/26 06:56:14;;;;;;;5.60;0.60;;;;;;;2.52;55.36;99717.50;4984635;28;20045;-68
2021/11/26 06:58:40;;;;;;;2.65;0.60;;;;;;;2.31;55.57;99709.41;4999548;28;20042;-67
2021/11/26 07:01:05;;;;;;;2.42;0.40;;;;;;;2.19;56.03;99706.28;4982558;28;20057;-68
2021/11/26 07:03:31;;;;;;;2.60;1.00;;;;;;;2.61;54.95;99696.63;4995027;28;20145;-67
2021/11/26 07:05:56;;;;;;;2.28;0.60;;;;;;;2.44;55.06;99698.78;4970144;28;20041;-68
2021/11/26 07:08:24;;;;;;;0.73;0.20;;;;;;;2.72;54.39;99689.44;4979107;28;20553;-68
2021/11/26 07:10:50;;;;;;;1.20;0.70;;;;;;;2.44;55.15;99688.47;4983414;28;20125;-68
2021/11/26 07:13:16;;;;;;;0.88;0.35;;;;;;;2.83;54.18;99691.75;4982776;28;20040;-68
2021/11/26 07:15:41;;;;;;;2.70;0.43;;;;;;;2.43;54.79;99684.19;4972496;28;20427;-68
2021/11/26 07:18:07;;;;;;;3.90;0.40;;;;;;;2.53;54.62;99680.47;4980329;28;20486;-66
2021/11/26 07:20:33;;;;;;;1.95;0.45;;;;;;;2.47;54.84;99681.50;4984929;28;20037;-67
2021/11/26 07:22:59;;;;;;;1.27;0.47;;;;;;;2.80;53.99;99680.66;4998079;28;20030;-67
2021/11/26 07:25:26;;;;;;;1.80;0.40;;;;;;;2.39;54.88;99682.56;4995745;28;20037;-67
2021/11/26 07:27:52;;;;;;;1.80;0.60;;;;;;;2.80;53.81;99672.91;4981808;28;21773;-66
2021/11/26 07:30:17;;;;;;;1.95;0.65;;;;;;;2.63;53.97;99671.63;4971738;28;20049;-67
2021/11/26 07:32:43;;;;;;;1.85;0.47;;;;;;;2.47;54.01;99670.34;4960484;28;20042;-67
2021/11/26 07:35:09;;;;;;;1.75;0.57;;;;;;;2.25;55.18;99665.72;4982086;28;20435;-67
2021/11/26 07:37:36;;;;;;;2.13;0.50;;;;;;;2.24;54.99;99663.16;4995224;28;20038;-68
2021/11/26 07:40:06;;;;;;;1.50;0.30;;;;;;;2.11;55.55;99653.19;4998746;28;20065;-67
2021/11/26 07:42:31;;;;;;;1.90;0.30;;;;;;;2.18;55.23;99659.03;4995003;28;20068;-67
2021/11/26 07:44:57;;;;;;;2.67;0.30;;;;;;;1.94;55.79;99658.72;4984255;28;20038;-67
2021/11/26 07:47:23;;;;;;;3.33;0.63;;;;;;;2.39;54.67;99649.06;4971159;28;20045;-68
2021/11/26 07:49:52;;;;;;;2.13;0.38;;;;;;;2.23;55.38;99639.13;4995618;28;20108;-68
2021/11/26 07:52:19;;;;;;;1.52;0.40;;;;;;;1.85;56.31;99645.22;4997035;28;20044;-68
2021/11/26 07:54:44;;;;;;;2.22;0.77;;;;;;;2.40;54.78;99635.25;4997636;28;20072;-67
2021/11/26 07:57:11;;;;;;;2.75;0.50;;;;;;;2.37;54.94;99632.78;4964757;28;20049;-67
2021/11/26 07:59:37;;;;;;;4.07;0.30;;;;;;;2.75;54.34;99629.16;4996098;28;20140;-67
2021/11/26 08:02:03;;;;;;;3.90;0.50;;;;;;;2.87;53.49;99621.09;4994904;28;20086;-67
2021/11/26 08:04:29;;;;;;;3.97;0.40;;;;;;;2.92;52.80;99610.66;4983026;28;20120;-67
2021/11/26 08:06:55;;;;;;;1.13;0.30;;;;;;;2.83;53.02;99605.75;4980859;28;20056;-67
2021/11/26 08:09:21;;;;;;;8.15;0.57;;;;;;;2.79;53.06;99602.41;4982165;28;20113;-67
2021/11/26 08:11:48;;;;;;;2.25;0.30;;;;;;;2.47;54.14;99598.13;4980228;28;20515;-66
2021/11/26 08:14:14;;;;;;;4.90;0.82;;;;;;;2.86;53.17;99585.84;4980220;28;20026;-67
2021/11/26 08:16:40;;;;;;;3.17;0.70;;;;;;;2.71;52.98;99589.72;4994879;28;20119;-67
2021/11/26 08:19:07;;;;;;;6.60;0.60;;;;;;;2.69;53.64;99578.59;4996208;28;20158;-67
2021/11/26 08:21:35;;;;;;;3.75;0.80;;;;;;;2.24;54.72;99572.94;4969866;28;20061;-66
2021/11/26 08:24:02;;;;;;;4.38;0.82;;;;;;;2.46;54.44;99565.47;4980375;28;20913;-67
2021/11/26 08:26:28;;;;;;;3.50;0.73;;;;;;;2.66;53.68;99578.66;4965730;28;20033;-68
2021/11/26 08:28:54;;;;;;;5.35;0.95;;;;;;;2.51;53.90;99563.59;4992802;28;20116;-68
2021/11/26 08:31:19;;;;;;;2.25;0.68;;;;;;;2.67;53.57;99564.88;4987918;28;20403;-68
2021/11/26 08:33:45;;;;;;;3.17;0.73;;;;;;;2.81;53.11;99558.50;4994992;28;20093;-68
2021/11/26 08:36:10;;;;;;;6.88;0.73;;;;;;;2.85;52.96;99557.53;4996787;28;20029;-67
2021/11/26 08:38:35;;;;;;;3.53;1.20;;;;;;;2.79;53.43;99557.69;4994257;28;20038;-68
2021/11/26 08:41:01;;;;;;;1.48;0.93;;;;;;;2.84;53.25;99555.81;4982456;28;20068;-68
2021/11/26 08:43:27;;;;;;;7.63;0.88;;;;;;;2.72;53.68;99557.84;4980578;28;20069;-67
2021/11/26 08:45:52;;;;;;;4.47;1.52;;;;;;;2.92;53.50;99553.88;4995343;28;20160;-67
2021/11/26 08:48:18;;;;;;;4.82;2.40;;;;;;;2.37;54.78;99545.09;4982261;28;20100;-67
2021/11/26 08:50:44;;;;;;;6.55;2.03;;;;;;;2.64;54.59;99540.91;5000992;28;20136;-68
2021/11/26 08:53:11;;;;;;;7.75;1.85;;;;;;;2.73;54.36;99548.38;4984007;28;20054;-68
2021/11/26 08:55:38;;;;;;;5.72;1.80;;;;;;;2.19;55.38;99536.13;4998129;28;20042;-68
2021/11/26 08:58:07;;;;;;;3.88;2.20;;;;;;;2.77;54.67;99534.50;4988430;28;20124;-66
2021/11/26 09:00:35;;;;;;;5.95;2.92;;;;;;;2.85;53.89;99529.97;4982762;28;20030;-68
2021/11/26 09:03:03;;;;;;;5.63;2.70;;;;;;;2.79;54.65;99522.41;4994872;28;20053;-68
2021/11/26 09:05:29;;;;;;;7.55;2.72;;;;;;;2.96;53.90;99519.34;4996367;28;20078;-67
2021/11/26 09:08:02;;;;;;;4.55;2.30;;;;;;;2.76;54.63;99513.03;4994091;28;20044;-68
2021/11/26 09:10:31;;;;;;;3.47;2.83;;;;;;;2.93;54.26;99514.25;4994273;28;20073;-69
2021/11/26 09:12:57;;;;;;;3.58;2.38;;;;;;;2.91;53.83;99513.44;4981309;28;20057;-66
2021/11/26 09:15:23;;;;;;;5.88;2.63;;;;;;;3.04;53.87;99504.44;4995767;28;20570;-67
2021/11/26 09:17:50;;;;;;;7.28;2.70;;;;;;;3.03;53.73;99504.50;4983628;28;20468;-67
2021/11/26 09:20:17;;;;;;;5.15;2.42;;;;;;;2.50;55.40;99498.28;4991623;28;20030;-68
2021/11/26 09:22:43;;;;;;;3.60;2.58;;;;;;;3.04;54.03;99507.00;4971539;28;20046;-67
2021/11/26 09:25:09;;;;;;;4.25;2.60;;;;;;;2.83;53.78;99498.19;4996994;28;20059;-68
2021/11/26 09:27:35;;;;;;;6.05;2.35;;;;;;;2.42;55.19;99491.66;4994407;28;20044;-67
2021/11/26 09:30:01;;;;;;;5.70;3.00;;;;;;;3.26;53.50;99489.13;4997966;28;20562;-67
2021/11/26 09:32:27;;;;;;;3.83;2.75;;;;;;;3.38;52.85;99481.03;4993369;28;20099;-66
2021/11/26 09:34:52;;;;;;;9.02;3.75;;;;;;;3.61;52.64;99471.69;4978955;28;20061;-70
2021/11/26 09:37:18;;;;;;;7.10;3.05;;;;;;;2.95;53.63;99478.91;4997185;28;20088;-67
2021/11/26 09:39:44;;;;;;;7.07;3.17;;;;;;;3.48;52.40;99460.06;4999203;28;20147;-68
2021/11/26 09:42:10;;;;;;;4.90;2.72;;;;;;;3.67;51.96;99465.44;4988277;28;20069;-68
2021/11/26 09:44:39;;;;;;;4.55;2.38;;;;;;;3.51;52.00;99453.03;4983022;28;20045;-67
2021/11/26 09:47:04;;;;;;;5.25;2.80;;;;;;;3.75;51.36;99453.13;4983013;28;20084;-68
2021/11/26 09:49:30;;;;;;;3.65;2.10;;;;;;;3.79;51.30;99454.69;4998915;28;20125;-69
2021/11/26 09:51:56;;;;;;;4.82;2.47;;;;;;;3.86;51.17;99440.66;4965510;28;20046;-68
2021/11/26 09:54:22;;;;;;;5.30;1.85;;;;;;;3.84;51.22;99441.63;4960924;28;20117;-68
2021/11/26 09:56:48;;;;;;;4.15;2.03;;;;;;;3.67;51.13;99434.44;4994673;28;20595;-67
2021/11/26 09:59:14;;;;;;;4.63;2.45;;;;;;;4.10;50.36;99427.78;4964857;28;20179;-68
2021/11/26 10:01:40;;;;;;;4.50;2.55;;;;;;;4.20;50.00;99421.34;4974979;28;20491;-68
2021/11/26 10:04:16;;;;;;;7.47;2.65;;;;;;;4.54;49.30;99420.09;4967905;28;20058;-68
2021/11/26 10:06:41;;;;;;;5.05;1.80;;;;;;;4.14;49.14;99409.50;4979693;28;20069;-68
2021/11/26 10:09:14;;;;;;;2.28;1.30;;;;;;;4.09;49.88;99410.56;4999162;28;20105;-68
2021/11/26 10:11:46;;;;;;;7.50;1.85;;;;;;;3.90;50.09;99398.31;4966069;28;20120;-70
2021/11/26 10:14:15;;;;;;;6.53;1.83;;;;;;;4.36;49.29;99396.63;4982893;28;20045;-67
2021/11/26 10:16:55;;;;;;;5.13;1.55;;;;;;;4.50;48.74;99384.88;4984194;28;20041;-68
2021/11/26 10:19:35;;;;;;;7.22;2.58;;;;;;;4.25;48.87;99382.38;4983079;28;20461;-67
2021/11/26 10:22:16;;;;;;;4.63;1.15;;;;;;;3.66;50.00;99376.75;4964188;28;20098;-67
2021/11/26 10:24:43;;;;;;;4.22;1.45;;;;;;;4.19;48.91;99373.13;5004370;28;20046;-68
2021/11/26 10:27:09;;;;;;;5.03;1.10;;;;;;;3.82;49.90;99351.19;4945732;28;20046;-67
2021/11/26 10:29:36;;;;;;;4.47;1.52;;;;;;;4.09;49.39;99353.66;5008961;23;20407;-64
2021/11/26 10:32:12;;;;;;;7.22;1.58;;;;;;;3.68;50.52;99340.53;4956890;28;20083;-61
2021/11/26 10:34:40;;;;;;;10.82;1.40;;;;;;;4.59;48.85;99332.78;4970759;28;20113;-62
2021/11/26 10:37:19;;;;;;;2.33;1.42;;;;;;;4.28;49.23;99333.97;4982558;28;20054;-62
2021/11/26 10:39:45;;;;;;;3.95;1.63;;;;;;;3.00;51.77;99332.47;4982747;28;20447;-64
2021/11/26 10:42:10;;;;;;;5.00;1.50;;;;;;;3.66;50.74;99325.06;4982065;28;20045;-63
2021/11/26 10:44:50;;;;;;;8.27;1.80;;;;;;;4.40;48.83;99312.78;4982363;28;20034;-62
2021/11/26 10:50:20;;;;;;;9.38;1.70;;;;;;;4.63;48.32;99295.50;4978662;28;20034;-63
2021/11/26 11:00:47;;;;;;;4.97;2.17;;;;;;;4.21;49.15;99276.47;4980765;28;20038;-61
2021/11/26 11:03:13;;;;;;;11.57;1.77;;;;;;;4.20;49.24;99274.78;4961426;28;20130;-61
2021/11/26 11:05:39;;;;;;;2.88;1.77;;;;;;;4.23;48.85;99258.31;4964650;28;20038;-61
2021/11/26 11:08:17;;;;;;;13.77;2.22;;;;;;;3.54;50.60;99254.03;4980626;28;20069;-61
2021/11/26 11:10:43;;;;;;;3.95;1.23;;;;;;;4.08;49.02;99248.56;4980439;28;20141;-61
2021/11/26 11:13:09;;;;;;;5.70;2.00;;;;;;;4.23;49.09;99235.03;4953465;28;20167;-62
2021/11/26 11:15:35;;;;;;;9.38;1.65;;;;;;;3.95;49.66;99238.69;4963654;28;20376;-63
2021/11/26 11:18:01;;;;;;;7.45;2.47;;;;;;;4.06;49.28;99227.94;4963982;28;20038;-62
2021/11/26 11:20:27;;;;;;;2.95;2.13;;;;;;;4.19;49.14;99215.38;4963299;28;20446;-63
2021/11/26 11:22:53;;;;;;;6.18;1.15;;;;;;;4.22;48.07;99204.91;4936015;28;20042;-65
2021/11/26 11:25:26;;;;;;;7.88;2.08;;;;;;;3.69;50.23;99210.41;4964533;28;20081;-65
2021/11/26 11:27:52;;;;;;;4.75;1.42;;;;;;;3.39;49.76;99206.34;4942609;28;20050;-64
2021/11/26 11:30:18;;;;;;;10.00;1.70;;;;;;;3.78;50.03;99199.72;4976062;28;20076;-62
2021/11/26 11:32:44;;;;;;;4.57;1.40;;;;;;;4.20;48.53;99186.00;4979523;28;20058;-64
2021/11/26 11:35:11;;;;;;;7.05;1.42;;;;;;;4.21;48.55;99190.31;4979347;28;20042;-63
2021/11/26 11:37:38;;;;;;;3.08;1.00;;;;;;;4.19;48.50;99176.59;4954536;28;20062;-62
2021/11/26 11:40:08;;;;;;;4.68;0.98;;;;;;;4.27;47.66;99177.09;4946365;28;20173;-62
2021/11/26 11:42:38;;;;;;;1.95;0.98;;;;;;;4.32;48.01;99164.84;4937944;28;20050;-63
2021/11/26 11:45:16;;;;;;;8.38;1.30;;;;;;;4.25;48.27;99163.38;4979859;28;20042;-62
2021/11/26 11:47:51;;;;;;;4.95;1.77;;;;;;;4.57;47.39;99153.47;4955597;28;20058;-63